Paso de la Patria, Argentina
Current Conditions -  °F | °C
As of 4:00 PM on Saturday 25 Oct 2014 (Local Time) from SARC Reporting Station
Clear Clear  
Wind Chill: 95°   Ceiling: Unl
Heat Index: 95°   Visibility: 5mi
Dew Point: 59°   Wind: 9mph
Humidity: 30%   Direction: 140°SE
Pressure: 29.77"   Gusts: NA
Location:  27.32°S, 58.58°W
Report Text: SARC 251900Z 14008KT 090V200 8000 NSC 35/15 Q1008
Loading
Personal Weather Stations






























Interactive Weather Map
Tropical Storm Tracking
New forecast layout! Learn more

10-Day Weather Forecast

Advertisements
Track Severe Weather on mobile